Time;durP1;ratioP1;P1;durP2;ratioP2;P2;SDS_P1;SDS_P2;PMS_P1;PMS_P2;Temp;Humidity;BMP_temperature;BMP_pressure;BME280_temperature;BME280_humidity;BME280_pressure;Samples;Min_cycle;Max_cycle;Signal;HPM_P1;HPM_P2
2022/01/01 00:00:09;;;;;;;2.83;2.50;;;-5.90;99.90;;;;;;4953969;28;20039;-78
2022/01/01 00:02:35;;;;;;;2.80;1.98;;;-5.80;99.90;;;;;;4953960;28;20607;-89
2022/01/01 00:05:01;;;;;;;2.85;2.05;;;-5.90;99.90;;;;;;4956973;28;20162;-81
2022/01/01 00:07:27;;;;;;;4.75;2.50;;;-5.60;99.90;;;;;;4959664;28;20114;-73
2022/01/01 00:09:53;;;;;;;3.22;2.38;;;-5.10;99.90;;;;;;4960402;28;20023;-77
2022/01/01 00:12:18;;;;;;;2.78;1.95;;;-5.20;99.90;;;;;;4958956;28;20038;-78
2022/01/01 00:14:44;;;;;;;3.10;2.30;;;-5.40;99.90;;;;;;4958923;28;20027;-71
2022/01/01 00:17:10;;;;;;;2.60;2.28;;;-5.50;99.90;;;;;;4960200;28;20034;-78
2022/01/01 00:19:36;;;;;;;2.15;1.83;;;-5.50;99.90;;;;;;4958408;28;20035;-77
2022/01/01 00:22:03;;;;;;;2.22;2.03;;;-5.60;99.90;;;;;;4959910;28;20107;-75
2022/01/01 00:24:29;;;;;;;1.95;1.67;;;-5.70;99.90;;;;;;4960125;28;20089;-75
2022/01/01 00:26:54;;;;;;;2.75;2.10;;;-5.80;99.90;;;;;;4958903;28;20398;-75
2022/01/01 00:29:20;;;;;;;2.42;2.00;;;-5.80;99.90;;;;;;4960506;28;20035;-75
2022/01/01 00:31:46;;;;;;;2.35;1.80;;;-5.90;99.90;;;;;;4959963;28;20383;-75
2022/01/01 00:34:13;;;;;;;2.60;2.00;;;-5.90;99.90;;;;;;4960274;28;20114;-75
2022/01/01 00:36:39;;;;;;;3.15;1.58;;;-5.90;99.90;;;;;;4959636;28;20090;-75
2022/01/01 00:39:05;;;;;;;1.70;1.60;;;-5.90;99.90;;;;;;4958652;28;20055;-75
2022/01/01 00:41:31;;;;;;;2.33;1.88;;;-5.90;99.90;;;;;;4960050;28;20034;-74
2022/01/01 00:43:57;;;;;;;1.70;1.60;;;-5.90;99.90;;;;;;4958767;28;20039;-74
2022/01/01 00:46:23;;;;;;;1.92;1.67;;;-5.90;99.90;;;;;;4960076;28;20050;-74
2022/01/01 00:48:53;;;;;;;3.17;2.55;;;-6.00;99.90;;;;;;4958527;28;20034;-74
2022/01/01 00:51:22;;;;;;;1.90;1.73;;;-6.00;99.90;;;;;;4960340;28;20054;-74
2022/01/01 00:53:48;;;;;;;1.77;1.65;;;-6.10;99.90;;;;;;4960094;28;20038;-74
2022/01/01 00:56:14;;;;;;;2.00;1.80;;;-6.10;99.90;;;;;;4960193;28;20071;-74
2022/01/01 00:58:39;;;;;;;1.65;1.52;;;-6.10;99.90;;;;;;4959745;28;20066;-74
2022/01/01 01:01:05;;;;;;;2.20;1.65;;;-6.20;99.90;;;;;;4959931;28;20027;-74
2022/01/01 01:03:31;;;;;;;2.45;1.60;;;-6.20;99.90;;;;;;4959717;28;20068;-74
2022/01/01 01:05:59;;;;;;;3.45;1.90;;;-6.20;99.90;;;;;;4958780;29;20109;-74
2022/01/01 01:08:26;;;;;;;2.35;1.77;;;-6.20;99.90;;;;;;4959764;28;20611;-74
2022/01/01 01:10:56;;;;;;;1.73;1.63;;;-6.30;99.90;;;;;;4959761;28;20051;-74
2022/01/01 01:13:24;;;;;;;2.78;1.40;;;-6.20;99.90;;;;;;4959669;28;20038;-74
2022/01/01 01:15:50;;;;;;;1.80;1.50;;;-6.30;99.90;;;;;;4958575;28;20027;-74
2022/01/01 01:18:15;;;;;;;1.60;1.50;;;-6.30;99.90;;;;;;4955986;28;20030;-74
2022/01/01 01:20:41;;;;;;;1.50;1.40;;;-6.30;99.90;;;;;;4956621;28;20510;-74
2022/01/01 01:23:08;;;;;;;1.90;1.70;;;-6.40;99.90;;;;;;4956610;28;20020;-74
2022/01/01 01:25:39;;;;;;;1.90;1.67;;;-6.30;99.90;;;;;;4956452;28;20031;-74
2022/01/01 01:28:08;;;;;;;4.32;2.28;;;-6.40;99.90;;;;;;4956851;28;20391;-74
2022/01/01 01:30:35;;;;;;;1.77;1.67;;;-6.40;99.90;;;;;;4956323;28;20027;-74
2022/01/01 01:33:01;;;;;;;2.70;1.65;;;-6.50;99.90;;;;;;4956356;28;20038;-74
2022/01/01 01:35:27;;;;;;;4.07;1.75;;;-6.50;99.90;;;;;;4956370;28;20037;-74
2022/01/01 01:37:52;;;;;;;2.38;1.75;;;-6.50;99.90;;;;;;4954672;28;20055;-75
2022/01/01 01:40:18;;;;;;;3.83;1.90;;;-6.50;99.90;;;;;;4956239;28;20483;-74
2022/01/01 01:42:45;;;;;;;2.85;1.80;;;-6.50;99.90;;;;;;4955993;28;20110;-75
2022/01/01 01:45:16;;;;;;;4.88;2.13;;;-6.40;99.90;;;;;;4955028;28;20555;-75
2022/01/01 01:47:42;;;;;;;2.97;2.28;;;-6.40;99.90;;;;;;4956186;28;20049;-75
2022/01/01 01:50:10;;;;;;;8.98;4.22;;;-6.50;99.90;;;;;;4956327;28;20526;-75
2022/01/01 01:52:37;;;;;;;18.80;5.97;;;-6.50;99.90;;;;;;4954762;28;20384;-75
2022/01/01 01:55:12;;;;;;;14.52;5.68;;;-6.60;99.90;;;;;;4956155;28;20481;-75
2022/01/01 01:57:42;;;;;;;15.25;6.40;;;-6.70;99.90;;;;;;4955935;28;20115;-75
2022/01/01 02:00:29;;;;;;;9.35;4.38;;;-6.70;99.90;;;;;;4955971;28;20070;-75
2022/01/01 02:02:55;;;;;;;5.75;3.35;;;-6.80;99.90;;;;;;4955923;28;20122;-76
2022/01/01 02:05:21;;;;;;;2.55;1.92;;;-6.90;99.90;;;;;;4955947;28;20452;-76
2022/01/01 02:07:49;;;;;;;5.13;1.98;;;-6.90;99.90;;;;;;4955792;28;20411;-76
2022/01/01 02:10:15;;;;;;;3.97;2.03;;;-6.90;99.90;;;;;;4956128;28;20106;-79
2022/01/01 02:12:41;;;;;;;1.70;1.60;;;-7.00;99.90;;;;;;4955662;28;20455;-80
2022/01/01 02:15:27;;;;;;;1.75;1.60;;;-7.00;99.90;;;;;;4956760;28;20034;-93
2022/01/01 02:17:54;;;;;;;1.40;1.30;;;-7.10;99.90;;;;;;4957985;28;20065;-91
2022/01/01 02:20:21;;;;;;;1.85;1.67;;;-7.20;99.90;;;;;;4958079;28;20103;-92
2022/01/01 02:22:48;;;;;;;1.67;1.58;;;-7.30;99.90;;;;;;4957791;28;20033;-92
2022/01/01 02:51:52;;;;;;;2.33;1.48;;;-7.50;99.90;;;;;;4953477;28;20137;-84
2022/01/01 02:54:18;;;;;;;1.90;1.45;;;-7.60;99.90;;;;;;4954880;28;20566;-82
2022/01/01 02:56:44;;;;;;;4.32;1.40;;;-7.70;99.90;;;;;;4954954;28;20026;-82
2022/01/01 02:59:10;;;;;;;1.63;1.52;;;-7.80;99.90;;;;;;4954777;28;20625;-82
2022/01/01 03:01:36;;;;;;;1.73;1.60;;;-7.80;99.90;;;;;;4955162;28;20034;-82
2022/01/01 03:37:41;;;;;;;4.95;1.60;;;-8.00;99.90;;;;;;5496331;23;20059;-77
2022/01/01 03:40:08;;;;;;;2.13;1.70;;;-8.00;99.90;;;;;;4953596;28;20046;-83
2022/01/01 03:42:33;;;;;;;1.73;1.50;;;-8.10;99.90;;;;;;4937462;28;20023;-82
2022/01/01 03:44:59;;;;;;;2.25;1.60;;;-8.10;99.90;;;;;;4935122;29;20502;-80
2022/01/01 03:47:25;;;;;;;2.30;1.75;;;-8.10;99.90;;;;;;4933568;29;20034;-80
2022/01/01 03:49:50;;;;;;;4.07;1.52;;;-8.10;99.90;;;;;;4935254;29;20067;-80
2022/01/01 03:52:16;;;;;;;1.50;1.40;;;-8.10;99.90;;;;;;4934833;29;20019;-80
2022/01/01 03:54:42;;;;;;;1.92;1.40;;;-8.20;99.90;;;;;;4935279;29;20028;-80
2022/01/01 03:57:08;;;;;;;4.82;1.20;;;-8.30;99.90;;;;;;4934805;29;20020;-80
2022/01/01 03:59:34;;;;;;;1.50;1.35;;;-8.30;99.90;;;;;;4934941;29;20040;-80
2022/01/01 04:01:59;;;;;;;2.15;1.48;;;-8.30;99.90;;;;;;4934914;29;20468;-79
2022/01/01 04:04:26;;;;;;;2.85;1.70;;;-8.30;99.90;;;;;;4934776;29;20042;-79
2022/01/01 04:06:53;;;;;;;3.88;1.48;;;-8.40;99.90;;;;;;4934962;29;20055;-79
2022/01/01 04:09:19;;;;;;;1.55;1.45;;;-8.40;99.90;;;;;;4934739;29;20024;-79
2022/01/01 04:11:46;;;;;;;1.67;1.58;;;-8.40;99.90;;;;;;4934935;29;20071;-79
2022/01/01 04:14:14;;;;;;;1.50;1.40;;;-8.40;99.90;;;;;;4934660;29;20028;-80
2022/01/01 04:16:41;;;;;;;3.15;1.55;;;-8.50;99.90;;;;;;4933546;29;20032;-80
2022/01/01 04:19:07;;;;;;;1.45;1.35;;;-8.50;99.90;;;;;;4934422;29;20043;-80
2022/01/01 04:21:33;;;;;;;2.03;1.73;;;-8.50;99.90;;;;;;4935003;29;20058;-80
2022/01/01 04:23:59;;;;;;;1.67;1.58;;;-8.50;99.90;;;;;;4934715;29;20493;-80
2022/01/01 04:26:25;;;;;;;1.50;1.40;;;-8.50;99.90;;;;;;4934608;29;20039;-80
2022/01/01 04:28:51;;;;;;;3.08;1.60;;;-8.50;99.90;;;;;;4934586;29;20055;-80
2022/01/01 04:31:17;;;;;;;2.15;1.77;;;-8.50;99.90;;;;;;4934938;29;20035;-80
2022/01/01 04:33:43;;;;;;;2.20;1.60;;;-8.50;99.90;;;;;;4934859;29;20495;-80
2022/01/01 04:36:10;;;;;;;1.98;1.77;;;-8.50;99.90;;;;;;4934547;29;20028;-80
2022/01/01 04:38:37;;;;;;;2.65;1.77;;;-8.50;99.90;;;;;;4934273;29;20095;-80
2022/01/01 04:41:12;;;;;;;1.52;1.42;;;-8.50;99.90;;;;;;4934731;29;20390;-80
2022/01/01 04:43:40;;;;;;;1.60;1.50;;;-8.50;99.90;;;;;;4934613;29;20020;-81
2022/01/01 04:46:06;;;;;;;2.95;1.42;;;-8.50;99.90;;;;;;4934470;29;20118;-80
2022/01/01 04:48:32;;;;;;;1.48;1.40;;;-8.50;99.90;;;;;;4935257;29;20062;-86
2022/01/01 04:50:57;;;;;;;2.28;1.70;;;-8.50;99.90;;;;;;4934359;29;20171;-82
2022/01/01 04:53:23;;;;;;;4.07;1.63;;;-8.60;99.90;;;;;;4938066;29;20024;-82
2022/01/01 04:55:50;;;;;;;1.80;1.67;;;-8.60;99.90;;;;;;4938108;29;20074;-82
2022/01/01 04:58:16;;;;;;;1.60;1.50;;;-8.60;99.90;;;;;;4937752;29;20471;-81
2022/01/01 05:00:42;;;;;;;1.60;1.35;;;-8.60;99.90;;;;;;4938019;29;20036;-81
2022/01/01 05:03:08;;;;;;;2.45;1.80;;;-8.60;99.90;;;;;;4937736;29;20077;-82
2022/01/01 05:05:33;;;;;;;2.08;1.70;;;-8.70;99.90;;;;;;4938033;29;20110;-82
2022/01/01 05:07:59;;;;;;;1.73;1.50;;;-8.80;99.90;;;;;;4937692;29;20027;-82
2022/01/01 05:10:25;;;;;;;2.15;1.50;;;-8.80;99.90;;;;;;4937741;29;20317;-83
2022/01/01 05:12:53;;;;;;;2.60;1.40;;;-8.70;99.90;;;;;;4937830;29;20439;-82
2022/01/01 05:15:19;;;;;;;1.40;1.30;;;-8.80;99.90;;;;;;4937609;29;20542;-81
2022/01/01 05:17:45;;;;;;;1.40;1.30;;;-8.80;99.90;;;;;;4937660;29;20110;-79
2022/01/01 05:20:11;;;;;;;2.88;1.45;;;-8.80;99.90;;;;;;4936356;29;20063;-80
2022/01/01 05:22:37;;;;;;;1.75;1.38;;;-8.80;99.90;;;;;;4937534;29;20055;-78
2022/01/01 05:25:03;;;;;;;1.40;1.30;;;-8.80;99.90;;;;;;4937575;29;20023;-78
2022/01/01 05:27:35;;;;;;;1.58;1.48;;;-8.80;99.90;;;;;;4937354;29;20024;-81
2022/01/01 05:30:01;;;;;;;2.00;1.77;;;-8.70;99.90;;;;;;4938016;29;20479;-88
2022/01/01 05:32:26;;;;;;;1.50;1.40;;;-8.70;99.90;;;;;;4937475;29;20070;-80
2022/01/01 05:34:52;;;;;;;1.60;1.50;;;-8.80;99.90;;;;;;4937044;29;20491;-81
2022/01/01 05:37:18;;;;;;;1.73;1.63;;;-8.80;99.90;;;;;;4937190;29;20047;-72
2022/01/01 05:39:43;;;;;;;1.58;1.48;;;-8.80;99.90;;;;;;4937170;29;20062;-74
2022/01/01 05:42:09;;;;;;;1.50;1.30;;;-8.90;99.90;;;;;;4936916;29;20020;-72
2022/01/01 05:44:35;;;;;;;1.55;1.25;;;-8.60;99.90;;;;;;4935639;29;20502;-77
2022/01/01 05:47:00;;;;;;;1.60;1.50;;;-7.90;99.90;;;;;;4936332;29;20038;-76
2022/01/01 05:49:26;;;;;;;1.63;1.50;;;-8.10;99.90;;;;;;4937003;29;20387;-79
2022/01/01 05:51:52;;;;;;;1.50;1.40;;;-8.40;99.90;;;;;;4933865;29;20411;-74
2022/01/01 05:54:18;;;;;;;1.50;1.40;;;-8.50;99.90;;;;;;4936865;29;20131;-69
2022/01/01 05:56:43;;;;;;;3.15;1.60;;;-8.60;99.90;;;;;;4936568;29;20031;-70
2022/01/01 05:59:09;;;;;;;1.33;1.23;;;-8.70;99.90;;;;;;4933653;29;20039;-80
2022/01/01 06:01:35;;;;;;;1.50;1.40;;;-8.70;99.90;;;;;;4935091;29;20491;-79
2022/01/01 06:04:00;;;;;;;2.88;1.50;;;-8.80;99.90;;;;;;4935373;29;20024;-80
2022/01/01 06:06:26;;;;;;;2.25;1.60;;;-8.80;99.90;;;;;;4936119;29;20390;-79
2022/01/01 06:08:52;;;;;;;1.60;1.50;;;-8.80;99.90;;;;;;4935005;29;20028;-79
2022/01/01 06:11:18;;;;;;;1.92;1.58;;;-8.80;99.90;;;;;;4936490;29;20045;-79
2022/01/01 06:13:43;;;;;;;1.63;1.30;;;-8.90;99.90;;;;;;4936145;29;20024;-79
2022/01/01 06:16:09;;;;;;;1.48;1.40;;;-8.90;99.90;;;;;;4936517;29;20028;-80
2022/01/01 06:18:35;;;;;;;1.67;1.58;;;-8.90;99.90;;;;;;4935892;29;20480;-78
2022/01/01 06:21:02;;;;;;;1.58;1.42;;;-8.90;99.90;;;;;;4936895;29;20036;-74
2022/01/01 06:23:27;;;;;;;1.77;1.50;;;-8.90;99.90;;;;;;4936188;29;20035;-74
2022/01/01 06:25:53;;;;;;;3.00;1.50;;;-9.00;99.90;;;;;;4935270;29;20028;-73
2022/01/01 06:28:19;;;;;;;1.70;1.60;;;-8.20;99.90;;;;;;4934917;29;20055;-74
2022/01/01 06:30:44;;;;;;;1.60;1.50;;;-8.40;99.90;;;;;;4935165;29;20492;-74
2022/01/01 06:33:18;;;;;;;1.30;1.30;;;-8.60;99.90;;;;;;4936097;29;20026;-74
2022/01/01 06:35:45;;;;;;;2.83;1.23;;;-8.80;99.90;;;;;;4936497;29;20034;-74
2022/01/01 06:38:12;;;;;;;1.45;1.35;;;-8.90;99.90;;;;;;4935874;29;20047;-73
2022/01/01 06:40:39;;;;;;;1.60;1.50;;;-9.00;99.90;;;;;;4936007;29;20059;-73
2022/01/01 06:43:07;;;;;;;2.00;1.20;;;-9.00;99.90;;;;;;4936064;29;20554;-74
2022/01/01 06:45:33;;;;;;;1.67;1.58;;;-9.00;99.90;;;;;;4936010;29;20028;-74
2022/01/01 06:47:59;;;;;;;1.27;1.27;;;-8.60;99.90;;;;;;4935923;29;20542;-73
2022/01/01 06:50:25;;;;;;;2.05;1.30;;;-8.50;99.90;;;;;;4934609;29;20028;-73
2022/01/01 06:52:51;;;;;;;1.70;1.60;;;-8.60;99.90;;;;;;4935793;29;20480;-73
2022/01/01 06:55:17;;;;;;;1.77;1.67;;;-8.60;99.90;;;;;;4935708;29;20031;-73
2022/01/01 06:57:43;;;;;;;1.67;1.58;;;-8.80;99.90;;;;;;4936076;29;20034;-73
2022/01/01 07:00:10;;;;;;;1.50;1.40;;;-8.80;99.90;;;;;;4934400;29;20062;-74
2022/01/01 07:02:44;;;;;;;1.40;1.30;;;-8.90;99.90;;;;;;4935590;29;20028;-74
2022/01/01 07:05:11;;;;;;;1.60;1.50;;;-8.90;99.90;;;;;;4935750;29;20028;-74
2022/01/01 07:07:37;;;;;;;1.55;1.45;;;-9.00;99.90;;;;;;4935694;29;20062;-74
2022/01/01 07:10:08;;;;;;;1.83;1.70;;;-9.00;99.90;;;;;;4934329;29;20395;-74
2022/01/01 07:12:35;;;;;;;1.50;1.40;;;-9.00;99.90;;;;;;4935803;29;20435;-74
2022/01/01 07:15:01;;;;;;;2.22;1.52;;;-9.00;99.90;;;;;;4933335;29;20030;-74
2022/01/01 07:17:27;;;;;;;1.50;1.40;;;-9.10;99.90;;;;;;4935307;29;20039;-74
2022/01/01 07:19:53;;;;;;;1.38;1.27;;;-9.20;99.90;;;;;;4935549;29;20040;-71
2022/01/01 07:22:19;;;;;;;2.70;1.48;;;-9.20;99.90;;;;;;4935393;29;20483;-73
2022/01/01 07:24:47;;;;;;;1.20;1.20;;;-9.20;99.90;;;;;;4935645;29;20028;-71
2022/01/01 07:27:13;;;;;;;1.80;1.50;;;-9.20;99.90;;;;;;4935259;29;20108;-71
2022/01/01 07:29:39;;;;;;;1.50;1.40;;;-9.20;99.90;;;;;;4935323;29;20106;-72
2022/01/01 07:32:06;;;;;;;1.60;1.50;;;-9.20;99.90;;;;;;4935303;29;20028;-73
2022/01/01 07:34:32;;;;;;;2.00;1.67;;;-9.20;99.90;;;;;;4935307;29;20115;-73
2022/01/01 07:36:57;;;;;;;1.50;1.40;;;-9.20;99.90;;;;;;4934983;29;20122;-72
2022/01/01 07:39:23;;;;;;;1.50;1.40;;;-9.20;99.90;;;;;;4933743;29;20127;-72
2022/01/01 07:41:49;;;;;;;1.50;1.40;;;-9.20;99.90;;;;;;4935310;29;20032;-73
2022/01/01 07:44:14;;;;;;;1.45;1.40;;;-9.20;99.90;;;;;;4935043;29;20036;-72
2022/01/01 07:46:40;;;;;;;2.40;1.65;;;-9.20;99.90;;;;;;4935443;29;20103;-72
2022/01/01 07:49:06;;;;;;;1.70;1.60;;;-9.20;99.90;;;;;;4935050;29;20522;-73
2022/01/01 07:51:32;;;;;;;3.60;1.50;;;-9.30;99.90;;;;;;4935036;29;20095;-72
2022/01/01 07:53:58;;;;;;;1.63;1.40;;;-9.30;99.90;;;;;;4934928;29;20038;-68
2022/01/01 07:56:24;;;;;;;1.63;1.52;;;-9.30;99.90;;;;;;4934901;29;20027;-65
2022/01/01 07:58:50;;;;;;;1.70;1.60;;;-9.40;99.90;;;;;;4934779;29;20162;-65
2022/01/01 08:01:15;;;;;;;2.92;1.40;;;-8.90;99.90;;;;;;4934751;29;20388;-66
2022/01/01 08:03:41;;;;;;;1.98;1.48;;;-8.30;99.90;;;;;;4934867;29;20028;-66
2022/01/01 08:06:07;;;;;;;1.42;1.33;;;-8.60;99.90;;;;;;4934872;29;20138;-66
2022/01/01 08:08:32;;;;;;;1.50;1.40;;;-9.00;99.90;;;;;;4934654;29;20360;-67
2022/01/01 08:10:59;;;;;;;1.83;1.45;;;-9.20;99.90;;;;;;4934877;29;20075;-67
2022/01/01 08:13:25;;;;;;;3.60;1.50;;;-9.30;99.90;;;;;;4934678;29;20047;-71
2022/01/01 08:15:55;;;;;;;1.50;1.40;;;-9.40;99.90;;;;;;4934845;29;20075;-71
2022/01/01 08:18:21;;;;;;;2.33;1.33;;;-9.50;99.90;;;;;;4934463;29;20087;-71
2022/01/01 08:20:47;;;;;;;1.55;1.33;;;-9.50;99.90;;;;;;4934877;29;20479;-71
2022/01/01 08:23:14;;;;;;;1.88;1.40;;;-9.50;99.90;;;;;;4934658;29;20063;-71
2022/01/01 08:25:40;;;;;;;1.30;1.23;;;-9.50;99.90;;;;;;4935163;29;20028;-71
2022/01/01 08:28:07;;;;;;;1.50;1.40;;;-9.60;99.90;;;;;;4938605;29;20079;-72
2022/01/01 08:30:36;;;;;;;1.58;1.48;;;-9.60;99.90;;;;;;4938340;29;20657;-72
2022/01/01 08:33:02;;;;;;;2.22;1.63;;;-9.50;99.90;;;;;;4938486;29;20087;-71
2022/01/01 08:35:33;;;;;;;1.60;1.50;;;-9.50;99.90;;;;;;4938249;29;20094;-73
2022/01/01 08:38:01;;;;;;;1.30;1.25;;;-9.50;99.90;;;;;;4938188;29;20089;-72
2022/01/01 08:40:27;;;;;;;1.60;1.50;;;-8.70;99.90;;;;;;4938022;29;20046;-72
2022/01/01 08:42:54;;;;;;;1.42;1.38;;;-8.80;99.90;;;;;;4938306;29;20019;-71
2022/01/01 08:45:20;;;;;;;2.13;1.35;;;-9.00;99.90;;;;;;4938038;29;20040;-71
2022/01/01 08:47:46;;;;;;;1.67;1.50;;;-9.20;99.90;;;;;;4938241;29;20026;-70
2022/01/01 08:50:12;;;;;;;1.38;1.27;;;-9.40;99.90;;;;;;4938055;29;20399;-70
2022/01/01 08:52:38;;;;;;;1.90;1.40;;;-9.50;99.90;;;;;;4937994;29;20042;-69
2022/01/01 08:55:04;;;;;;;2.00;1.70;;;-9.60;99.90;;;;;;4938328;29;20043;-69
2022/01/01 08:57:32;;;;;;;2.08;1.48;;;-9.60;99.90;;;;;;4937949;29;20487;-69
2022/01/01 08:59:58;;;;;;;2.55;1.75;;;-9.20;99.90;;;;;;4936657;29;20046;-69
2022/01/01 09:02:24;;;;;;;2.42;1.83;;;-6.00;99.90;;;;;;4937643;29;20392;-70
2022/01/01 09:04:50;;;;;;;5.65;1.60;;;-6.00;99.90;;;;;;4937968;29;20035;-65
2022/01/01 09:07:17;;;;;;;1.55;1.45;;;-6.30;99.90;;;;;;4937975;29;20024;-65
2022/01/01 09:09:43;;;;;;;2.72;1.83;;;-7.00;99.90;;;;;;4938137;29;20388;-66
2022/01/01 09:12:10;;;;;;;2.08;1.88;;;-7.80;99.90;;;;;;4937888;29;20027;-66
2022/01/01 09:14:36;;;;;;;2.15;1.95;;;-8.30;99.90;;;;;;4937702;29;20028;-66
2022/01/01 09:17:03;;;;;;;4.35;2.13;;;-8.60;99.90;;;;;;4937704;29;20028;-66
2022/01/01 09:19:29;;;;;;;4.35;2.33;;;-8.80;99.90;;;;;;4937444;29;20100;-69
2022/01/01 09:21:55;;;;;;;9.27;3.05;;;-8.90;99.90;;;;;;4936159;29;20028;-69
2022/01/01 09:24:20;;;;;;;4.75;2.25;;;-9.00;99.90;;;;;;4937336;29;20034;-69
2022/01/01 09:26:46;;;;;;;4.88;2.30;;;-9.10;99.90;;;;;;4937547;29;20626;-69
2022/01/01 09:29:12;;;;;;;5.38;2.00;;;-9.20;99.90;;;;;;4937634;29;20036;-70
2022/01/01 09:31:42;;;;;;;3.08;1.77;;;-9.30;99.90;;;;;;4937555;29;20035;-69
2022/01/01 09:34:08;;;;;;;3.78;1.92;;;-9.40;99.90;;;;;;4937445;29;20032;-69
2022/01/01 09:36:34;;;;;;;3.10;1.92;;;-9.40;99.90;;;;;;4937158;29;20183;-69
2022/01/01 09:39:02;;;;;;;5.68;2.20;;;-9.40;99.90;;;;;;4936518;29;20115;-71
2022/01/01 09:41:28;;;;;;;3.13;2.28;;;-9.40;99.90;;;;;;4936971;29;20028;-69
2022/01/01 09:43:54;;;;;;;2.30;1.90;;;-9.50;99.90;;;;;;4936879;29;20035;-69
2022/01/01 09:46:20;;;;;;;1.90;1.70;;;-9.50;99.90;;;;;;4936782;29;20031;-69
2022/01/01 09:48:46;;;;;;;2.03;1.70;;;-9.50;99.90;;;;;;4937035;29;20032;-69
2022/01/01 09:51:13;;;;;;;4.28;1.88;;;-9.50;99.90;;;;;;4936889;29;20488;-69
2022/01/01 09:53:39;;;;;;;4.80;1.70;;;-9.60;99.90;;;;;;4936775;29;20032;-69
2022/01/01 09:56:05;;;;;;;3.00;1.90;;;-9.50;99.90;;;;;;4936952;29;20028;-69
2022/01/01 09:58:34;;;;;;;2.70;1.70;;;-9.50;99.90;;;;;;4936756;29;20059;-69
2022/01/01 10:01:02;;;;;;;3.28;1.63;;;-9.50;99.90;;;;;;4936885;29;20032;-69
2022/01/01 10:03:42;;;;;;;1.70;1.60;;;-9.50;99.90;;;;;;4936668;29;20433;-69
2022/01/01 10:06:12;;;;;;;1.87;1.60;;;-9.60;99.90;;;;;;4936793;29;20036;-69
2022/01/01 10:08:39;;;;;;;1.77;1.60;;;-9.60;99.90;;;;;;4936602;29;20032;-69
2022/01/01 10:11:08;;;;;;;2.92;1.70;;;-9.60;99.90;;;;;;4936679;29;20055;-69
2022/01/01 10:13:39;;;;;;;1.80;1.30;;;-9.60;99.90;;;;;;4936510;29;20028;-69
2022/01/01 10:16:07;;;;;;;2.70;1.50;;;-9.60;99.90;;;;;;4936652;29;20079;-69
2022/01/01 10:18:36;;;;;;;2.90;1.60;;;-9.60;99.90;;;;;;4940866;29;20063;-69
2022/01/01 10:21:05;;;;;;;2.55;1.58;;;-9.60;99.90;;;;;;4936132;29;20058;-69
2022/01/01 10:23:33;;;;;;;2.10;1.70;;;-9.60;99.90;;;;;;4936330;29;20024;-69
2022/01/01 10:29:26;;;;;;;1.83;1.40;;;-9.60;99.90;;;;;;4936447;29;20183;-68
2022/01/01 10:32:03;;;;;;;1.75;1.60;;;-8.70;99.90;;;;;;4936518;29;20181;-68
2022/01/01 10:34:34;;;;;;;1.60;1.50;;;-8.00;99.90;;;;;;4936254;29;20020;-68
2022/01/01 10:37:01;;;;;;;2.85;1.15;;;-8.40;99.90;;;;;;4935990;29;20051;-69
2022/01/01 10:39:28;;;;;;;1.63;1.30;;;-8.70;99.90;;;;;;4936001;29;20032;-69
2022/01/01 10:42:00;;;;;;;1.80;1.70;;;-9.00;99.90;;;;;;4935993;29;20499;-69
2022/01/01 10:44:33;;;;;;;1.60;1.50;;;-9.10;99.90;;;;;;4933693;29;20028;-68
2022/01/01 10:47:12;;;;;;;1.50;1.40;;;-9.20;99.90;;;;;;4935559;29;20020;-69
2022/01/01 10:52:20;;;;;;;1.50;1.40;;;-9.30;99.90;;;;;;4935557;29;20512;-68
2022/01/01 10:54:55;;;;;;;2.22;1.50;;;-9.30;99.90;;;;;;4933981;29;20166;-69
2022/01/01 10:57:26;;;;;;;1.73;1.63;;;-9.30;99.90;;;;;;4933347;29;20020;-69
2022/01/01 11:00:09;;;;;;;1.95;1.70;;;-9.30;99.90;;;;;;4935759;29;20032;-69
2022/01/01 11:02:36;;;;;;;2.45;1.65;;;-9.30;99.90;;;;;;4935645;29;20024;-69
2022/01/01 11:05:03;;;;;;;1.40;1.30;;;-9.30;99.90;;;;;;4935679;29;20513;-69
2022/01/01 11:07:30;;;;;;;1.63;1.50;;;-9.40;99.90;;;;;;4935487;29;20031;-69
2022/01/01 11:09:57;;;;;;;1.60;1.50;;;-9.40;99.90;;;;;;4935663;29;20028;-69
2022/01/01 11:12:27;;;;;;;1.92;1.40;;;-9.40;99.90;;;;;;4935611;29;20482;-69
2022/01/01 11:14:54;;;;;;;2.95;1.90;;;-9.40;99.90;;;;;;4935880;29;20028;-69
2022/01/01 11:17:21;;;;;;;1.70;1.60;;;-9.40;99.90;;;;;;4935437;29;20031;-69
2022/01/01 11:19:47;;;;;;;1.85;1.75;;;-9.30;99.90;;;;;;4935243;29;20110;-69
2022/01/01 11:22:13;;;;;;;1.85;1.67;;;-9.40;99.90;;;;;;4935752;29;20031;-69
2022/01/01 11:24:41;;;;;;;1.58;1.48;;;-9.40;99.90;;;;;;4935170;29;20099;-68
2022/01/01 11:27:08;;;;;;;2.30;1.73;;;-9.40;99.90;;;;;;4935671;29;20027;-69
2022/01/01 11:29:35;;;;;;;2.08;1.75;;;-9.40;99.90;;;;;;4935142;29;20082;-69
2022/01/01 11:32:02;;;;;;;1.63;1.52;;;-9.40;99.90;;;;;;4935347;29;20522;-69
2022/01/01 11:34:31;;;;;;;4.30;1.92;;;-9.40;99.90;;;;;;4935080;29;20114;-69
2022/01/01 11:36:58;;;;;;;1.42;1.33;;;-9.50;99.90;;;;;;4935051;29;20531;-69
2022/01/01 11:39:27;;;;;;;1.70;1.60;;;-9.40;99.90;;;;;;4933744;29;20042;-69
2022/01/01 11:42:12;;;;;;;2.45;1.80;;;-9.40;99.90;;;;;;4935251;29;20031;-69
2022/01/01 11:44:49;;;;;;;1.40;1.30;;;-9.40;99.90;;;;;;4935205;29;20036;-69
2022/01/01 11:47:19;;;;;;;3.20;1.65;;;-9.40;99.90;;;;;;4934627;29;20075;-69
2022/01/01 11:49:46;;;;;;;1.40;1.30;;;-9.40;99.90;;;;;;4932358;29;20047;-69
2022/01/01 11:52:12;;;;;;;2.60;1.75;;;-9.40;99.90;;;;;;4934958;29;20027;-69
2022/01/01 11:54:42;;;;;;;1.45;1.38;;;-9.50;99.90;;;;;;4934215;29;20367;-69
2022/01/01 11:57:07;;;;;;;1.30;1.30;;;-9.50;99.90;;;;;;4934674;29;20032;-69
2022/01/01 11:59:37;;;;;;;1.50;1.40;;;-9.50;99.90;;;;;;4934416;29;20050;-69
2022/01/01 12:02:05;;;;;;;1.67;1.57;;;-9.50;99.90;;;;;;4929395;29;20074;-70
2022/01/01 12:04:41;;;;;;;1.90;1.52;;;-9.60;99.90;;;;;;4934537;29;20027;-70
2022/01/01 12:07:26;;;;;;;1.75;1.65;;;-9.50;99.90;;;;;;4932908;29;20412;-69
2022/01/01 12:09:58;;;;;;;2.08;1.63;;;-9.50;99.90;;;;;;4920347;29;20028;-69
2022/01/01 12:12:36;;;;;;;2.00;1.70;;;-9.60;99.90;;;;;;4934911;29;20051;-71
2022/01/01 12:15:04;;;;;;;1.80;1.70;;;-9.60;99.90;;;;;;4934739;29;20028;-69
2022/01/01 12:17:48;;;;;;;1.83;1.65;;;-9.60;99.90;;;;;;4934569;29;20028;-69
2022/01/01 12:20:19;;;;;;;1.50;1.40;;;-9.60;99.90;;;;;;4934940;29;20048;-69
2022/01/01 12:22:46;;;;;;;1.90;1.60;;;-9.60;99.90;;;;;;4934620;29;20115;-71
2022/01/01 12:25:24;;;;;;;2.08;1.67;;;-9.60;99.90;;;;;;4934685;29;20030;-69
2022/01/01 12:27:52;;;;;;;1.60;1.40;;;-9.40;99.90;;;;;;4934550;29;20357;-69
2022/01/01 12:30:48;;;;;;;1.92;1.70;;;-9.30;99.90;;;;;;4934569;29;20043;-69
2022/01/01 12:33:44;;;;;;;1.70;1.60;;;-9.40;99.90;;;;;;4934677;29;20032;-70
2022/01/01 12:36:11;;;;;;;2.28;1.83;;;-9.60;99.90;;;;;;4934540;29;20027;-68
2022/01/01 12:38:40;;;;;;;1.70;1.60;;;-9.60;99.90;;;;;;4933014;29;20052;-69
2022/01/01 12:41:38;;;;;;;1.55;1.40;;;-9.60;99.90;;;;;;4934538;29;20051;-68
2022/01/01 12:44:23;;;;;;;1.60;1.50;;;-9.70;99.90;;;;;;4922753;29;20036;-67
2022/01/01 12:46:52;;;;;;;1.67;1.58;;;-9.60;99.90;;;;;;4933151;29;20422;-68
2022/01/01 12:49:18;;;;;;;1.67;1.58;;;-8.60;99.90;;;;;;4934698;29;20043;-68
2022/01/01 12:51:45;;;;;;;3.55;1.73;;;-8.20;99.90;;;;;;4934251;29;20020;-68
2022/01/01 12:54:16;;;;;;;2.70;1.88;;;-8.60;99.90;;;;;;4934676;29;20028;-68
2022/01/01 12:56:43;;;;;;;2.60;1.73;;;-8.90;99.90;;;;;;4934407;29;20047;-67
2022/01/01 12:59:11;;;;;;;2.75;1.60;;;-9.10;99.90;;;;;;4933820;29;20043;-68
2022/01/01 13:01:48;;;;;;;1.40;1.30;;;-9.30;99.90;;;;;;4934556;29;20383;-68
2022/01/01 13:04:26;;;;;;;1.70;1.58;;;-9.40;99.90;;;;;;4934317;29;20038;-68
2022/01/01 13:06:54;;;;;;;1.58;1.42;;;-9.50;99.90;;;;;;4932980;29;20538;-67
2022/01/01 13:09:24;;;;;;;1.70;1.60;;;-9.60;99.90;;;;;;4934340;29;20521;-68
2022/01/01 13:11:57;;;;;;;1.73;1.63;;;-9.60;99.90;;;;;;4933965;29;20167;-68
2022/01/01 13:14:23;;;;;;;2.53;1.60;;;-9.60;99.90;;;;;;4937906;29;20495;-68
2022/01/01 13:16:49;;;;;;;1.77;1.65;;;-9.60;99.90;;;;;;4937786;29;20051;-68
2022/01/01 13:19:15;;;;;;;2.10;1.90;;;-9.50;99.90;;;;;;4939066;29;20040;-68
2022/01/01 13:21:42;;;;;;;1.90;1.50;;;-9.50;99.90;;;;;;4937603;29;20407;-69
2022/01/01 13:24:09;;;;;;;1.30;1.20;;;-9.60;99.90;;;;;;4936312;29;20031;-68
2022/01/01 13:26:36;;;;;;;1.67;1.58;;;-9.70;99.90;;;;;;4936994;29;20032;-68
2022/01/01 13:29:03;;;;;;;2.10;1.75;;;-9.80;99.90;;;;;;4937361;29;20035;-68
2022/01/01 13:31:30;;;;;;;3.03;1.85;;;-9.80;99.90;;;;;;4937371;29;20075;-68
2022/01/01 13:33:57;;;;;;;2.22;1.98;;;-9.80;99.90;;;;;;4937282;29;20448;-68
2022/01/01 13:36:32;;;;;;;2.53;1.70;;;-9.90;99.90;;;;;;4937165;29;20051;-68
2022/01/01 13:39:00;;;;;;;3.50;1.95;;;-9.80;99.90;;;;;;4937172;29;20036;-68
2022/01/01 13:41:36;;;;;;;2.95;2.08;;;-9.80;99.90;;;;;;4937144;29;20039;-68
2022/01/01 13:44:20;;;;;;;3.00;1.98;;;-9.90;99.90;;;;;;4937298;29;20020;-68
2022/01/01 13:46:46;;;;;;;2.28;2.03;;;-9.90;99.90;;;;;;4936794;29;20042;-68
2022/01/01 13:49:13;;;;;;;1.88;1.65;;;-9.90;99.90;;;;;;4937302;29;20391;-68
2022/01/01 13:51:39;;;;;;;2.47;1.77;;;-9.90;99.90;;;;;;4936897;29;20471;-68
2022/01/01 13:54:07;;;;;;;2.45;1.52;;;-10.00;99.90;;;;;;4937131;29;20031;-68